Time;durP1;ratioP1;P1;durP2;ratioP2;P2;SDS_P1;SDS_P2;PMS_P1;PMS_P2;Temp;Humidity;BMP_temperature;BMP_pressure;BME280_temperature;BME280_humidity;BME280_pressure;Samples;Min_cycle;Max_cycle;Signal;HPM_P1;HPM_P2
2022/07/06 00:01:12;;;;;;;;;;;14.10;96.10;;;;;;5095855;28;19924;-84
2022/07/06 00:03:39;;;;;;;;;;;14.10;96.50;;;;;;5099088;28;19962;-85
2022/07/06 00:06:06;;;;;;;;;;;14.00;96.10;;;;;;5102566;28;19927;-85
2022/07/06 00:08:34;;;;;;;;;;;13.90;96.80;;;;;;5110787;28;19950;-86
2022/07/06 00:11:01;;;;;;;;;;;13.90;96.60;;;;;;5101538;28;19920;-86
2022/07/06 00:13:28;;;;;;;;;;;15.20;97.60;;;;;;5093144;28;20389;-84
2022/07/06 00:15:55;;;;;;;;;;;13.00;96.60;;;;;;5079367;28;19995;-84
2022/07/06 00:18:22;;;;;;;;;;;13.70;96.80;;;;;;5084218;28;20231;-84
2022/07/06 00:20:48;;;;;;;;;;;13.70;97.50;;;;;;5092551;28;19928;-84
2022/07/06 00:23:15;;;;;;;;;;;13.70;97.40;;;;;;5079405;28;19930;-85
2022/07/06 00:25:44;;;;;;;;;;;13.60;97.00;;;;;;5094382;28;20030;-85
2022/07/06 00:28:11;;;;;;;;;;;13.60;97.50;;;;;;5094452;28;19931;-84
2022/07/06 00:30:38;;;;;;;;;;;13.50;97.40;;;;;;5095997;28;19920;-85
2022/07/06 00:33:05;;;;;;;;;;;13.40;97.30;;;;;;5100734;28;19973;-85
2022/07/06 00:35:32;;;;;;;;;;;13.30;97.30;;;;;;5108838;28;19920;-86
2022/07/06 00:37:59;;;;;;;;;;;13.30;98.30;;;;;;5107199;28;19928;-84
2022/07/06 00:40:26;;;;;;;;;;;13.20;98.20;;;;;;5101125;28;20452;-84
2022/07/06 00:42:55;;;;;;;;;;;13.20;98.10;;;;;;5105391;28;19924;-85
2022/07/06 00:45:21;;;;;;;;;;;13.10;98.30;;;;;;5098224;28;20049;-85
2022/07/06 00:47:48;;;;;;;;;;;13.20;99.00;;;;;;5078637;28;19973;-85
2022/07/06 00:50:18;;;;;;;;;;;13.10;98.40;;;;;;5093307;28;20023;-85
2022/07/06 00:52:46;;;;;;;;;;;13.10;98.80;;;;;;5091960;28;19951;-85
2022/07/06 00:55:14;;;;;;;;;;;12.90;99.00;;;;;;5074272;28;20477;-85
2022/07/06 00:57:44;;;;;;;;;;;12.90;98.80;;;;;;5101774;28;19927;-85
2022/07/06 01:00:13;;;;;;;;;;;12.90;99.40;;;;;;5096702;28;19977;-85
2022/07/06 01:02:40;;;;;;;;;;;12.90;99.50;;;;;;5094695;28;19950;-84
2022/07/06 01:05:08;;;;;;;;;;;12.90;99.80;;;;;;5092287;28;19920;-85
2022/07/06 01:07:35;;;;;;;;;;;12.90;99.90;;;;;;5085472;28;19924;-85
2022/07/06 01:10:02;;;;;;;;;;;12.90;99.90;;;;;;5073843;28;20400;-84
2022/07/06 01:12:29;;;;;;;;;;;12.90;99.90;;;;;;5074564;28;19920;-84
2022/07/06 01:14:56;;;;;;;;;;;12.90;99.90;;;;;;5085181;28;19924;-84
2022/07/06 01:17:25;;;;;;;;;;;12.90;99.90;;;;;;5082435;28;19962;-85
2022/07/06 01:19:52;;;;;;;;;;;14.60;99.90;;;;;;5088581;28;19927;-85
2022/07/06 01:22:20;;;;;;;;;;;13.00;99.90;;;;;;5107346;28;19924;-86
2022/07/06 01:24:47;;;;;;;;;;;12.90;99.90;;;;;;5110647;28;19950;-86
2022/07/06 01:27:13;;;;;;;;;;;12.90;99.90;;;;;;5109816;28;19924;-87
2022/07/06 01:29:40;;;;;;;;;;;12.90;99.90;;;;;;5112476;28;19920;-85
2022/07/06 01:32:07;;;;;;;;;;;12.90;99.90;;;;;;5099738;28;20312;-86
2022/07/06 01:34:35;;;;;;;;;;;12.80;99.90;;;;;;5106941;28;19935;-85
2022/07/06 01:37:04;;;;;;;;;;;12.70;99.90;;;;;;5091985;28;20027;-88
2022/07/06 01:39:33;;;;;;;;;;;12.80;99.90;;;;;;5096218;28;19924;-86
2022/07/06 01:42:00;;;;;;;;;;;12.40;99.90;;;;;;5096423;28;19998;-86
2022/07/06 01:44:27;;;;;;;;;;;12.80;99.90;;;;;;5098402;28;19924;-87
2022/07/06 01:46:53;;;;;;;;;;;12.90;99.90;;;;;;5087758;28;19924;-86
2022/07/06 01:49:20;;;;;;;;;;;12.90;99.90;;;;;;5086294;28;19925;-86
2022/07/06 01:51:47;;;;;;;;;;;13.00;99.90;;;;;;5083152;28;20043;-86
2022/07/06 01:54:14;;;;;;;;;;;13.00;99.90;;;;;;5076272;28;20489;-85
2022/07/06 01:56:43;;;;;;;;;;;13.10;99.90;;;;;;5087849;28;19912;-86
2022/07/06 01:59:10;;;;;;;;;;;13.20;99.90;;;;;;5076772;28;19924;-85
2022/07/06 02:01:37;;;;;;;;;;;13.20;99.90;;;;;;5069844;28;19935;-86
2022/07/06 02:04:04;;;;;;;;;;;13.30;99.90;;;;;;5071222;28;19924;-85
2022/07/06 02:06:31;;;;;;;;;;;13.40;99.90;;;;;;5076185;28;19986;-86
2022/07/06 02:08:58;;;;;;;;;;;13.40;99.90;;;;;;5076561;28;20358;-86
2022/07/06 02:11:27;;;;;;;;;;;13.40;99.90;;;;;;5088400;28;19986;-85
2022/07/06 02:13:55;;;;;;;;;;;13.40;99.90;;;;;;5082054;28;19959;-85
2022/07/06 02:16:22;;;;;;;;;;;13.40;99.90;;;;;;5082364;28;19924;-85
2022/07/06 02:18:48;;;;;;;;;;;13.20;99.90;;;;;;5090266;28;20451;-84
2022/07/06 02:21:15;;;;;;;;;;;13.30;99.90;;;;;;5073282;28;19928;-85
2022/07/06 02:23:42;;;;;;;;;;;13.30;99.90;;;;;;5071758;28;19960;-85
2022/07/06 02:26:09;;;;;;;;;;;13.20;99.90;;;;;;5073667;28;20033;-85
2022/07/06 02:28:35;;;;;;;;;;;13.20;99.90;;;;;;5096456;28;19930;-85
2022/07/06 02:31:04;;;;;;;;;;;13.10;99.90;;;;;;5099853;28;19926;-86
2022/07/06 02:33:31;;;;;;;;;;;15.00;99.90;;;;;;5106675;28;19973;-85
2022/07/06 02:35:58;;;;;;;;;;;13.00;99.90;;;;;;5104993;28;19924;-85
2022/07/06 02:38:25;;;;;;;;;;;12.90;99.90;;;;;;5100230;28;19931;-85
2022/07/06 02:40:52;;;;;;;;;;;12.90;99.90;;;;;;5088520;28;19924;-86
2022/07/06 02:43:19;;;;;;;;;;;13.80;99.90;;;;;;5099985;28;19920;-85
2022/07/06 02:45:46;;;;;;;;;;;12.90;99.90;;;;;;5087817;28;20022;-85
2022/07/06 02:48:14;;;;;;;;;;;12.90;99.90;;;;;;5083559;28;19925;-86
2022/07/06 02:50:41;;;;;;;;;;;12.90;99.90;;;;;;5091779;28;20341;-82
2022/07/06 02:53:08;;;;;;;;;;;12.80;99.90;;;;;;5090778;28;19931;-85
2022/07/06 02:55:35;;;;;;;;;;;12.60;99.90;;;;;;5087922;28;19920;-87
2022/07/06 02:58:02;;;;;;;;;;;12.60;99.90;;;;;;5100562;28;20435;-85
2022/07/06 03:00:31;;;;;;;;;;;12.60;99.90;;;;;;5111375;28;19962;-85
2022/07/06 03:02:58;;;;;;;;;;;12.50;99.90;;;;;;5100846;28;19931;-85
2022/07/06 03:05:27;;;;;;;;;;;12.40;99.90;;;;;;5102927;28;20066;-86
2022/07/06 03:07:55;;;;;;;;;;;12.40;99.90;;;;;;5096489;28;19928;-86
2022/07/06 03:10:22;;;;;;;;;;;12.40;99.90;;;;;;5087143;28;20368;-83
2022/07/06 03:12:49;;;;;;;;;;;12.30;99.90;;;;;;5086619;28;19928;-86
2022/07/06 03:15:16;;;;;;;;;;;12.20;99.90;;;;;;5096424;28;19981;-84
2022/07/06 03:17:45;;;;;;;;;;;12.10;99.90;;;;;;5096149;28;19924;-85
2022/07/06 03:20:14;;;;;;;;;;;12.20;99.90;;;;;;5085278;28;19924;-83
2022/07/06 03:22:43;;;;;;;;;;;12.20;99.90;;;;;;5076698;28;19998;-83
2022/07/06 03:25:11;;;;;;;;;;;12.10;99.90;;;;;;5076032;28;19930;-86
2022/07/06 03:27:40;;;;;;;;;;;12.10;99.90;;;;;;5091015;28;19926;-83
2022/07/06 03:30:08;;;;;;;;;;;12.10;99.90;;;;;;5102741;28;20385;-83
2022/07/06 03:32:39;;;;;;;;;;;12.10;99.90;;;;;;5106970;28;19924;-86
2022/07/06 03:35:07;;;;;;;;;;;12.00;99.90;;;;;;5102665;28;19970;-83
2022/07/06 03:37:34;;;;;;;;;;;;;;;;;;5094904;28;19947;-85
2022/07/06 03:40:03;;;;;;;;;;;11.90;99.90;;;;;;5099392;28;19974;-85
2022/07/06 03:42:30;;;;;;;;;;;11.90;99.90;;;;;;5103927;28;20055;-85
2022/07/06 03:45:21;;;;;;;;;;;11.90;99.90;;;;;;5108116;28;19908;-86
2022/07/06 03:47:49;;;;;;;;;;;11.90;99.90;;;;;;5121690;27;19976;-87
2022/07/06 03:50:24;;;;;;;;;;;11.90;99.90;;;;;;5103147;28;19924;-83
2022/07/06 03:52:58;;;;;;;;;;;11.90;99.90;;;;;;5092302;28;20514;-86
2022/07/06 03:55:27;;;;;;;;;;;12.00;99.90;;;;;;5088582;28;19928;-83
2022/07/06 03:57:58;;;;;;;;;;;12.00;99.90;;;;;;5090787;28;20026;-83
2022/07/06 04:03:17;;;;;;;;;;;12.10;99.90;;;;;;5082835;28;19950;-87
2022/07/06 04:05:48;;;;;;;;;;;12.00;99.90;;;;;;5086683;28;19924;-86
2022/07/06 04:08:41;;;;;;;;;;;12.30;99.90;;;;;;5094998;28;19928;-87
2022/07/06 04:11:11;;;;;;;;;;;12.30;99.90;;;;;;5100250;28;19924;-86
2022/07/06 04:13:47;;;;;;;;;;;12.40;99.90;;;;;;5107440;28;20441;-87
2022/07/06 04:16:15;;;;;;;;;;;12.50;99.90;;;;;;5103511;28;20014;-87
2022/07/06 04:18:43;;;;;;;;;;;12.60;99.90;;;;;;5128815;28;19924;-85
2022/07/06 04:21:11;;;;;;;;;;;12.60;99.90;;;;;;5099144;28;20386;-83
2022/07/06 04:23:50;;;;;;;;;;;12.70;99.90;;;;;;5107418;28;19996;-83
2022/07/06 04:26:19;;;;;;;;;;;12.80;99.90;;;;;;5100379;28;19939;-84
2022/07/06 04:28:53;;;;;;;;;;;12.90;99.90;;;;;;5102472;28;20490;-84
2022/07/06 04:31:22;;;;;;;;;;;13.10;99.90;;;;;;5107859;28;19924;-85
2022/07/06 04:33:51;;;;;;;;;;;13.10;99.90;;;;;;5109750;28;19970;-84
2022/07/06 04:36:18;;;;;;;;;;;13.40;99.90;;;;;;5106415;28;19931;-84
2022/07/06 04:38:48;;;;;;;;;;;13.50;99.90;;;;;;5096179;28;20010;-85
2022/07/06 04:41:23;;;;;;;;;;;13.60;99.90;;;;;;5101830;28;19920;-85
2022/07/06 04:43:59;;;;;;;;;;;13.80;99.90;;;;;;5081352;28;20250;-85
2022/07/06 04:46:35;;;;;;;;;;;14.00;99.90;;;;;;5080066;28;19928;-87
2022/07/06 04:49:12;;;;;;;;;;;14.20;99.90;;;;;;5082812;28;19920;-86
2022/07/06 04:51:40;;;;;;;;;;;14.30;99.90;;;;;;5085951;28;19939;-87
2022/07/06 04:54:24;;;;;;;;;;;12.40;99.90;;;;;;5088712;28;19921;-86
2022/07/06 04:57:05;;;;;;;;;;;;;;;;;;5092320;28;20269;-85
2022/07/06 05:02:19;;;;;;;;;;;15.20;99.90;;;;;;5108270;28;19928;-87
2022/07/06 05:04:46;;;;;;;;;;;15.30;99.90;;;;;;5117409;28;19920;-84
2022/07/06 05:07:13;;;;;;;;;;;15.40;99.90;;;;;;5097227;28;19968;-85
2022/07/06 05:09:52;;;;;;;;;;;15.50;99.90;;;;;;5105344;28;20146;-87
2022/07/06 05:12:34;;;;;;;;;;;15.60;99.90;;;;;;5109510;28;19930;-86
2022/07/06 05:15:13;;;;;;;;;;;15.80;99.90;;;;;;5107458;28;19924;-86
2022/07/06 05:17:41;;;;;;;;;;;15.90;99.90;;;;;;5095370;28;19947;-85
2022/07/06 05:20:09;;;;;;;;;;;16.00;99.90;;;;;;5095157;28;19988;-86
2022/07/06 05:22:43;;;;;;;;;;;16.00;99.90;;;;;;5100487;28;19924;-84
2022/07/06 05:25:13;;;;;;;;;;;16.10;99.90;;;;;;5100327;28;19923;-85
2022/07/06 05:27:47;;;;;;;;;;;16.20;99.90;;;;;;5101315;28;19924;-85
2022/07/06 05:30:18;;;;;;;;;;;16.30;99.90;;;;;;5085471;28;19920;-87
2022/07/06 05:32:45;;;;;;;;;;;16.30;99.90;;;;;;5082363;28;20027;-85
2022/07/06 05:35:16;;;;;;;;;;;;;;;;;;5079265;28;19928;-84
2022/07/06 05:37:48;;;;;;;;;;;16.50;99.90;;;;;;5085183;28;19924;-86
2022/07/06 05:40:19;;;;;;;;;;;16.60;99.90;;;;;;5094710;28;20027;-85
2022/07/06 05:42:46;;;;;;;;;;;16.60;99.90;;;;;;5090194;28;19936;-85
2022/07/06 05:45:25;;;;;;;;;;;16.90;99.90;;;;;;5089080;28;19920;-86
2022/07/06 05:50:50;;;;;;;;;;;17.20;99.90;;;;;;5023722;28;19925;-87
2022/07/06 05:53:20;;;;;;;;;;;17.40;99.90;;;;;;5095011;28;19925;-86
2022/07/06 05:55:53;;;;;;;;;;;17.60;99.90;;;;;;5080173;28;19946;-85
2022/07/06 05:58:36;;;;;;;;;;;17.60;99.90;;;;;;5094038;28;19931;-86
2022/07/06 06:01:18;;;;;;;;;;;17.80;99.90;;;;;;5101431;28;19924;-86
2022/07/06 06:03:59;;;;;;;;;;;18.20;99.90;;;;;;5096356;28;20247;-86
2022/07/06 06:06:34;;;;;;;;;;;;;;;;;;5083359;28;19928;-86
2022/07/06 06:09:03;;;;;;;;;;;18.70;99.90;;;;;;5110429;28;19920;-86
2022/07/06 06:11:33;;;;;;;;;;;18.80;99.90;;;;;;5094038;28;20326;-85
2022/07/06 06:14:03;;;;;;;;;;;19.00;99.90;;;;;;5094539;28;20048;-86
2022/07/06 06:19:41;;;;;;;;;;;19.30;99.90;;;;;;5094210;28;19920;-86
2022/07/06 06:22:08;;;;;;;;;;;19.40;99.90;;;;;;5095646;28;20034;-85
2022/07/06 06:25:05;;;;;;;;;;;19.50;99.90;;;;;;5095486;28;19963;-87
2022/07/06 06:27:32;;;;;;;;;;;19.50;99.90;;;;;;5097097;28;19997;-87
2022/07/06 06:29:59;;;;;;;;;;;19.60;99.90;;;;;;5104835;28;19931;-85
2022/07/06 06:32:28;;;;;;;;;;;19.70;99.90;;;;;;5108472;28;19919;-85
2022/07/06 06:35:01;;;;;;;;;;;19.70;99.90;;;;;;5083956;28;19978;-88
2022/07/06 06:37:31;;;;;;;;;;;19.80;99.90;;;;;;5093242;28;19923;-85
2022/07/06 06:39:58;;;;;;;;;;;19.90;99.90;;;;;;5097018;28;19920;-84
2022/07/06 06:42:34;;;;;;;;;;;19.80;99.90;;;;;;5097230;28;19951;-86
2022/07/06 06:45:12;;;;;;;;;;;19.90;99.90;;;;;;5097066;28;20434;-86
2022/07/06 06:47:50;;;;;;;;;;;19.90;99.90;;;;;;5076135;28;19920;-86
2022/07/06 06:50:19;;;;;;;;;;;20.00;99.90;;;;;;5076896;28;19942;-86
2022/07/06 06:52:45;;;;;;;;;;;20.10;99.90;;;;;;5093447;28;20347;-85
2022/07/06 06:55:12;;;;;;;;;;;20.20;99.90;;;;;;5078231;28;19921;-87
2022/07/06 06:57:39;;;;;;;;;;;20.20;99.90;;;;;;5084817;28;19969;-86
2022/07/06 07:00:07;;;;;;;;;;;20.20;99.90;;;;;;5096624;28;19924;-85
2022/07/06 07:02:36;;;;;;;;;;;20.40;99.90;;;;;;5082777;28;20023;-85
2022/07/06 07:05:42;;;;;;;;;;;20.50;99.90;;;;;;5084359;28;19924;-85
2022/07/06 07:08:21;;;;;;;;;;;20.60;99.90;;;;;;5075309;28;19924;-85
2022/07/06 07:10:48;;;;;;;;;;;20.60;99.90;;;;;;5100533;28;19927;-85
2022/07/06 07:13:17;;;;;;;;;;;20.60;99.90;;;;;;5121172;28;19950;-86
2022/07/06 07:16:00;;;;;;;;;;;20.90;99.90;;;;;;5108187;28;19963;-89
2022/07/06 07:18:37;;;;;;;;;;;21.20;99.90;;;;;;5103400;28;20002;-85
2022/07/06 07:21:17;;;;;;;;;;;21.30;99.90;;;;;;5095180;28;19989;-85
2022/07/06 07:23:43;;;;;;;;;;;21.70;99.90;;;;;;5095097;28;20309;-85
2022/07/06 07:26:10;;;;;;;;;;;22.10;99.90;;;;;;5110105;28;20023;-85
2022/07/06 07:28:37;;;;;;;;;;;22.10;99.90;;;;;;5086233;28;20015;-87
2022/07/06 07:31:08;;;;;;;;;;;22.30;99.90;;;;;;5073763;28;20389;-86
2022/07/06 07:33:35;;;;;;;;;;;22.30;99.90;;;;;;5087171;28;19955;-87
2022/07/06 07:36:07;;;;;;;;;;;22.30;99.90;;;;;;5093757;28;19923;-86
2022/07/06 07:38:40;;;;;;;;;;;;;;;;;;5087642;28;20461;-86
2022/07/06 07:41:11;;;;;;;;;;;22.50;99.90;;;;;;5085580;28;19974;-87
2022/07/06 07:43:37;;;;;;;;;;;22.70;99.90;;;;;;5073219;28;19928;-86
2022/07/06 07:46:06;;;;;;;;;;;23.00;99.90;;;;;;5074470;28;19924;-86
2022/07/06 07:48:37;;;;;;;;;;;23.20;99.90;;;;;;5080697;28;19928;-85
2022/07/06 07:51:14;;;;;;;;;;;23.20;99.90;;;;;;5087310;28;19958;-86
2022/07/06 07:53:44;;;;;;;;;;;23.40;99.90;;;;;;5092670;28;19928;-86
2022/07/06 07:56:12;;;;;;;;;;;24.10;99.90;;;;;;5125123;28;20402;-86
2022/07/06 07:58:45;;;;;;;;;;;24.20;99.90;;;;;;5128037;28;19946;-86
2022/07/06 08:01:27;;;;;;;;;;;24.90;99.00;;;;;;5087039;28;19924;-87
2022/07/06 08:03:57;;;;;;;;;;;25.20;99.20;;;;;;5100773;28;19930;-89
2022/07/06 08:06:24;;;;;;;;;;;25.40;98.80;;;;;;5095489;28;20404;-85
2022/07/06 08:08:51;;;;;;;;;;;25.40;97.30;;;;;;5090988;28;19924;-87
2022/07/06 08:11:18;;;;;;;;;;;;;;;;;;5100398;28;19928;-85
2022/07/06 08:13:46;;;;;;;;;;;25.50;96.70;;;;;;5090409;28;19931;-85
2022/07/06 08:16:13;;;;;;;;;;;25.50;96.80;;;;;;5093528;28;20353;-86
2022/07/06 08:18:39;;;;;;;;;;;25.50;95.00;;;;;;5111462;28;19954;-85
2022/07/06 08:21:17;;;;;;;;;;;25.30;94.10;;;;;;5093236;28;19924;-85
2022/07/06 08:23:50;;;;;;;;;;;25.10;95.10;;;;;;5088852;28;19924;-85
2022/07/06 08:26:17;;;;;;;;;;;25.30;96.10;;;;;;5092083;28;19987;-84
2022/07/06 08:28:45;;;;;;;;;;;25.40;95.20;;;;;;5092281;28;20306;-83
2022/07/06 08:31:21;;;;;;;;;;;26.80;93.90;;;;;;5101682;28;19920;-85
2022/07/06 08:33:52;;;;;;;;;;;26.90;93.40;;;;;;5083521;28;20023;-84
2022/07/06 08:36:18;;;;;;;;;;;27.60;92.50;;;;;;5087851;28;19924;-85
2022/07/06 08:38:49;;;;;;;;;;;27.70;92.30;;;;;;5083593;28;20293;-87
2022/07/06 08:41:16;;;;;;;;;;;27.70;89.20;;;;;;5118551;28;19988;-86
2022/07/06 08:43:43;;;;;;;;;;;27.70;88.20;;;;;;5108381;28;19963;-85
2022/07/06 08:46:13;;;;;;;;;;;27.30;88.80;;;;;;5094100;28;20353;-86
2022/07/06 08:48:42;;;;;;;;;;;27.10;85.70;;;;;;5070398;28;19925;-85
2022/07/06 08:51:09;;;;;;;;;;;26.80;86.10;;;;;;5087898;28;19935;-86
2022/07/06 08:53:36;;;;;;;;;;;26.50;85.00;;;;;;5098600;28;19931;-83
2022/07/06 08:56:03;;;;;;;;;;;26.10;86.40;;;;;;5097287;28;19920;-84
2022/07/06 08:58:31;;;;;;;;;;;26.10;84.60;;;;;;5081286;28;20003;-82
2022/07/06 09:00:58;;;;;;;;;;;26.50;83.40;;;;;;5077149;28;20015;-83
2022/07/06 09:03:25;;;;;;;;;;;26.40;83.30;;;;;;5075639;28;19924;-84
2022/07/06 09:05:56;;;;;;;;;;;26.10;84.10;;;;;;5077064;28;19947;-83
2022/07/06 09:08:25;;;;;;;;;;;26.10;83.00;;;;;;5078771;28;19959;-85
2022/07/06 09:10:51;;;;;;;;;;;25.90;81.60;;;;;;5069860;28;19973;-85
2022/07/06 09:13:18;;;;;;;;;;;25.60;82.20;;;;;;5073330;28;19935;-85
2022/07/06 09:15:45;;;;;;;;;;;24.80;81.10;;;;;;5074365;28;19920;-84
2022/07/06 09:18:12;;;;;;;;;;;24.70;81.00;;;;;;5101068;28;19924;-86
2022/07/06 09:20:41;;;;;;;;;;;24.70;80.90;;;;;;5088858;28;20344;-86
2022/07/06 09:23:09;;;;;;;;;;;25.00;82.10;;;;;;5078105;28;20435;-85
2022/07/06 09:25:38;;;;;;;;;;;25.30;82.50;;;;;;5097899;28;19923;-87
2022/07/06 09:30:58;;;;;;;;;;;25.60;81.30;;;;;;5079411;28;19925;-85
2022/07/06 09:33:25;;;;;;;;;;;25.30;81.10;;;;;;5068461;28;19952;-84
2022/07/06 09:35:54;;;;;;;;;;;25.10;78.80;;;;;;5071624;28;19924;-84
2022/07/06 09:38:26;;;;;;;;;;;24.90;77.70;;;;;;5079983;28;19943;-85
2022/07/06 09:40:53;;;;;;;;;;;24.80;80.00;;;;;;5088432;28;19936;-84
2022/07/06 09:43:22;;;;;;;;;;;24.70;79.40;;;;;;5100411;28;19932;-84
2022/07/06 09:45:49;;;;;;;;;;;25.50;79.40;;;;;;5084254;28;19928;-84
2022/07/06 09:48:20;;;;;;;;;;;25.60;79.00;;;;;;5091865;28;19924;-84
2022/07/06 09:50:52;;;;;;;;;;;26.50;79.20;;;;;;5104317;28;20395;-84
2022/07/06 09:53:20;;;;;;;;;;;26.60;78.60;;;;;;5102532;28;19923;-85
2022/07/06 09:55:54;;;;;;;;;;;27.00;74.20;;;;;;5114445;28;19946;-84
2022/07/06 09:58:27;;;;;;;;;;;27.10;73.10;;;;;;5113070;28;19920;-84
2022/07/06 10:00:54;;;;;;;;;;;27.40;75.20;;;;;;5112848;28;20182;-85
2022/07/06 10:03:21;;;;;;;;;;;27.70;73.60;;;;;;5113719;28;20226;-84
2022/07/06 10:05:53;;;;;;;;;;;27.70;73.20;;;;;;5109256;28;19938;-83
2022/07/06 10:08:20;;;;;;;;;;;27.70;71.70;;;;;;5092057;28;19924;-85
2022/07/06 10:10:49;;;;;;;;;;;27.20;69.60;;;;;;5080702;28;19924;-85
2022/07/06 10:13:21;;;;;;;;;;;27.20;69.90;;;;;;5085393;28;20321;-85
2022/07/06 10:15:49;;;;;;;;;;;26.60;71.50;;;;;;5087486;28;19928;-85
2022/07/06 10:18:15;;;;;;;;;;;26.40;70.20;;;;;;5087198;28;19959;-85
2022/07/06 10:20:42;;;;;;;;;;;26.40;71.40;;;;;;5086082;28;19928;-85
2022/07/06 10:23:09;;;;;;;;;;;26.40;71.90;;;;;;5090714;28;19921;-85
2022/07/06 10:25:36;;;;;;;;;;;26.30;71.10;;;;;;5098380;28;20003;-84
2022/07/06 10:28:10;;;;;;;;;;;26.30;70.00;;;;;;5084730;28;20022;-84
2022/07/06 10:30:39;;;;;;;;;;;24.00;69.20;;;;;;5073364;28;19924;-83
2022/07/06 10:33:10;;;;;;;;;;;25.60;70.40;;;;;;5085516;28;19943;-84
2022/07/06 10:35:40;;;;;;;;;;;25.70;72.30;;;;;;5077375;28;19928;-84
2022/07/06 10:38:08;;;;;;;;;;;25.70;71.40;;;;;;5090110;28;20343;-86
2022/07/06 10:43:19;;;;;;;;;;;25.80;71.60;;;;;;5086401;28;19931;-84
2022/07/06 10:45:59;;;;;;;;;;;26.00;73.20;;;;;;5096406;28;20401;-85
2022/07/06 10:48:34;;;;;;;;;;;26.00;72.30;;;;;;5090628;28;19928;-85
2022/07/06 10:51:04;;;;;;;;;;;26.30;72.30;;;;;;5089636;28;19924;-85
2022/07/06 10:53:41;;;;;;;;;;;26.80;72.10;;;;;;5092620;28;20161;-87
2022/07/06 10:56:09;;;;;;;;;;;27.30;72.00;;;;;;5093860;28;19928;-86
2022/07/06 10:58:50;;;;;;;;;;;27.60;70.50;;;;;;5098273;28;19963;-85
2022/07/06 11:01:46;;;;;;;;;;;27.60;71.10;;;;;;5101376;28;19924;-88
2022/07/06 11:04:34;;;;;;;;;;;27.70;69.90;;;;;;5101706;28;19931;-85
2022/07/06 11:07:26;;;;;;;;;;;27.60;69.00;;;;;;5087244;28;19931;-87
2022/07/06 11:09:57;;;;;;;;;;;27.60;68.00;;;;;;5094142;28;19943;-86
2022/07/06 11:12:24;;;;;;;;;;;27.10;68.40;;;;;;5090718;28;20018;-88
2022/07/06 11:15:01;;;;;;;;;;;27.10;67.90;;;;;;5089042;28;19920;-86
2022/07/06 11:17:29;;;;;;;;;;;27.00;68.90;;;;;;5098427;28;20022;-87
2022/07/06 11:19:58;;;;;;;;;;;26.80;69.30;;;;;;5090664;28;19943;-88
2022/07/06 11:22:25;;;;;;;;;;;26.70;69.90;;;;;;5079741;28;19920;-85
2022/07/06 11:24:52;;;;;;;;;;;26.70;69.60;;;;;;5074941;28;19924;-85
2022/07/06 11:27:19;;;;;;;;;;;26.80;70.40;;;;;;5086059;28;19943;-86
2022/07/06 11:29:52;;;;;;;;;;;26.80;69.40;;;;;;5091544;28;19996;-86
2022/07/06 11:32:31;;;;;;;;;;;26.90;69.90;;;;;;5093626;28;20034;-87
2022/07/06 11:35:10;;;;;;;;;;;26.90;68.90;;;;;;5092811;28;19924;-85
2022/07/06 11:37:45;;;;;;;;;;;26.80;69.40;;;;;;5084191;28;19987;-85
2022/07/06 11:40:13;;;;;;;;;;;26.50;69.50;;;;;;5086642;28;20364;-86
2022/07/06 11:42:40;;;;;;;;;;;26.50;69.30;;;;;;5076312;28;20019;-87
2022/07/06 11:45:08;;;;;;;;;;;26.30;69.10;;;;;;5076837;28;19920;-87
2022/07/06 11:47:34;;;;;;;;;;;26.10;69.50;;;;;;5074282;28;19924;-86
2022/07/06 11:50:07;;;;;;;;;;;25.80;70.10;;;;;;5075123;28;19950;-85
2022/07/06 11:55:15;;;;;;;;;;;25.60;70.30;;;;;;5025672;28;19921;-74
2022/07/06 11:57:42;;;;;;;;;;;25.50;71.30;;;;;;5018169;28;20015;-76
2022/07/06 12:00:11;;;;;;;;;;;25.40;71.90;;;;;;5025888;28;19984;-76
2022/07/06 12:02:41;;;;;;;;;;;25.50;72.30;;;;;;4990691;28;19926;-76
2022/07/06 12:05:09;;;;;;;;;;;25.50;72.10;;;;;;4990910;28;20027;-76
2022/07/06 12:07:36;;;;;;;;;;;25.50;72.50;;;;;;5023154;28;19933;-76
2022/07/06 12:10:03;;;;;;;;;;;25.60;71.90;;;;;;5021105;28;19965;-75
2022/07/06 12:12:30;;;;;;;;;;;25.50;71.60;;;;;;5019324;28;19929;-76
2022/07/06 12:14:58;;;;;;;;;;;25.40;71.90;;;;;;5006805;28;19948;-76
2022/07/06 12:17:25;;;;;;;;;;;25.30;72.30;;;;;;5009425;28;19929;-76
2022/07/06 12:19:54;;;;;;;;;;;25.10;72.00;;;;;;5552943;22;19928;-76
2022/07/06 12:22:26;;;;;;;;;;;25.10;72.70;;;;;;5049861;28;20288;-76
2022/07/06 12:24:53;;;;;;;;;;;25.00;72.70;;;;;;5049133;28;19924;-76
2022/07/06 12:27:21;;;;;;;;;;;25.10;72.70;;;;;;5049048;28;19978;-76
2022/07/06 12:29:48;;;;;;;;;;;25.40;72.90;;;;;;5065797;28;19924;-77
2022/07/06 12:32:16;;;;;;;;;;;25.80;72.60;;;;;;5068843;28;19932;-79
2022/07/06 12:34:44;;;;;;;;;;;26.00;71.90;;;;;;5075523;28;19965;-79
2022/07/06 12:37:12;;;;;;;;;;;26.10;71.60;;;;;;5068651;28;19936;-78
2022/07/06 12:39:43;;;;;;;;;;;26.10;70.90;;;;;;5067064;28;19929;-78
2022/07/06 12:42:10;;;;;;;;;;;26.00;71.30;;;;;;5076591;28;19962;-78
2022/07/06 12:44:42;;;;;;;;;;;25.90;71.30;;;;;;5059087;28;19921;-78
2022/07/06 12:47:10;;;;;;;;;;;25.80;71.60;;;;;;5054929;28;19954;-78
2022/07/06 12:49:39;;;;;;;;;;;25.60;71.30;;;;;;5061142;28;19931;-78
2022/07/06 12:52:10;;;;;;;;;;;25.50;71.60;;;;;;5086870;28;20301;-78
2022/07/06 12:54:41;;;;;;;;;;;25.30;71.20;;;;;;5073222;28;19931;-78
2022/07/06 12:57:14;;;;;;;;;;;25.30;72.00;;;;;;5072457;28;19932;-80
2022/07/06 12:59:42;;;;;;;;;;;24.20;70.30;;;;;;5074845;28;19920;-78
2022/07/06 13:02:10;;;;;;;;;;;25.40;72.40;;;;;;5073987;28;20367;-78
2022/07/06 13:04:38;;;;;;;;;;;25.30;71.80;;;;;;5073129;28;19927;-78
2022/07/06 13:07:05;;;;;;;;;;;25.40;72.00;;;;;;5072379;28;19920;-78
2022/07/06 13:09:32;;;;;;;;;;;25.40;72.50;;;;;;5072489;28;20003;-78
2022/07/06 13:12:02;;;;;;;;;;;25.20;73.20;;;;;;5070892;28;19925;-77
2022/07/06 13:14:30;;;;;;;;;;;25.80;72.50;;;;;;5092247;28;20303;-76
2022/07/06 13:16:57;;;;;;;;;;;25.70;71.50;;;;;;5092724;28;20286;-74
2022/07/06 13:19:27;;;;;;;;;;;25.80;71.90;;;;;;5090345;28;19935;-73
2022/07/06 13:21:54;;;;;;;;;;;25.90;71.90;;;;;;5091357;28;19920;-74
2022/07/06 13:24:21;;;;;;;;;;;26.10;71.80;;;;;;5076324;28;20331;-75
2022/07/06 13:26:48;;;;;;;;;;;26.40;70.60;;;;;;5071652;28;19924;-75
2022/07/06 13:29:15;;;;;;;;;;;26.90;70.00;;;;;;5069808;28;19924;-76
2022/07/06 13:31:43;;;;;;;;;;;27.10;70.10;;;;;;5068907;28;19927;-76
2022/07/06 13:34:10;;;;;;;;;;;27.30;68.90;;;;;;5069020;28;20380;-73
2022/07/06 13:36:37;;;;;;;;;;;27.30;68.30;;;;;;5068573;28;19925;-74
2022/07/06 13:39:04;;;;;;;;;;;27.20;67.70;;;;;;5068271;28;19924;-74
2022/07/06 13:41:31;;;;;;;;;;;27.20;67.80;;;;;;5067598;28;19920;-72
2022/07/06 13:44:00;;;;;;;;;;;27.50;68.20;;;;;;5068296;28;19920;-73
2022/07/06 13:46:27;;;;;;;;;;;27.70;67.30;;;;;;5067917;28;20011;-73
2022/07/06 13:48:56;;;;;;;;;;;28.00;65.90;;;;;;5068713;28;19920;-73
2022/07/06 13:51:23;;;;;;;;;;;28.00;65.40;;;;;;5069310;28;20459;-74
2022/07/06 13:53:50;;;;;;;;;;;28.20;66.10;;;;;;5067296;28;20022;-74
2022/07/06 13:56:18;;;;;;;;;;;28.30;65.60;;;;;;5068863;28;19932;-74
2022/07/06 13:58:45;;;;;;;;;;;28.10;65.60;;;;;;5067367;28;20570;-74
2022/07/06 14:01:12;;;;;;;;;;;28.00;65.50;;;;;;5068362;28;20441;-74
2022/07/06 14:03:40;;;;;;;;;;;27.60;65.20;;;;;;5067364;28;20070;-74
2022/07/06 14:06:09;;;;;;;;;;;27.60;66.60;;;;;;5067430;28;19928;-74
2022/07/06 14:08:36;;;;;;;;;;;27.10;65.90;;;;;;5066904;28;20435;-73
2022/07/06 14:11:04;;;;;;;;;;;27.00;66.40;;;;;;5067830;28;19931;-74
2022/07/06 14:13:31;;;;;;;;;;;26.80;66.60;;;;;;5068233;28;19924;-74
2022/07/06 14:16:01;;;;;;;;;;;26.90;66.90;;;;;;5066908;28;19934;-73
2022/07/06 14:18:28;;;;;;;;;;;27.30;68.20;;;;;;5066896;28;19921;-74
2022/07/06 14:20:55;;;;;;;;;;;27.60;66.90;;;;;;5068151;28;19935;-74
2022/07/06 14:23:23;;;;;;;;;;;27.70;65.40;;;;;;5068807;28;19920;-74
2022/07/06 14:25:51;;;;;;;;;;;27.30;64.40;;;;;;5048552;28;19924;-75
2022/07/06 14:28:18;;;;;;;;;;;26.80;65.40;;;;;;5048441;28;20296;-75
2022/07/06 14:30:46;;;;;;;;;;;26.40;66.60;;;;;;5048236;28;19932;-74
2022/07/06 14:33:13;;;;;;;;;;;26.20;66.70;;;;;;5046604;28;20492;-74
2022/07/06 14:35:41;;;;;;;;;;;26.30;66.80;;;;;;5046766;28;19921;-75
2022/07/06 14:38:08;;;;;;;;;;;26.50;66.50;;;;;;5052479;28;19947;-74
2022/07/06 14:40:37;;;;;;;;;;;26.70;66.40;;;;;;5066198;28;19932;-75
2022/07/06 14:43:05;;;;;;;;;;;26.80;65.80;;;;;;5068645;28;20362;-74
2022/07/06 14:45:32;;;;;;;;;;;27.10;66.70;;;;;;5068497;28;19939;-73
2022/07/06 14:47:59;;;;;;;;;;;27.20;65.20;;;;;;5066362;28;19920;-75
2022/07/06 14:50:26;;;;;;;;;;;27.20;65.50;;;;;;5065914;28;20011;-76
2022/07/06 14:52:53;;;;;;;;;;;27.20;65.10;;;;;;5070485;28;19921;-75